Time;durP1;ratioP1;P1;durP2;ratioP2;P2;SDS_P1;SDS_P2;PMS_P1;PMS_P2;Temp;Humidity;BMP_temperature;BMP_pressure;BME280_temperature;BME280_humidity;BME280_pressure;Samples;Min_cycle;Max_cycle;Signal;HPM_P1;HPM_P2
2021/09/24 00:01:32;;;;;;;8.88;3.90;;;;;;;12.00;91.95;99877.88;6271365;28;20041;-75
2021/09/24 00:04:35;;;;;;;7.38;3.45;;;;;;;11.97;91.70;99858.00;6271150;28;20149;-74
2021/09/24 00:07:36;;;;;;;9.52;4.00;;;;;;;11.98;91.61;99857.06;6254686;28;20041;-74
2021/09/24 00:10:37;;;;;;;4.45;3.03;;;;;;;11.97;91.66;99855.41;6271097;28;20086;-74
2021/09/24 00:13:38;;;;;;;11.77;4.18;;;;;;;11.89;92.20;99837.63;6254531;28;20094;-74
2021/09/24 00:16:39;;;;;;;8.32;3.65;;;;;;;11.89;92.64;99834.19;6271167;28;20045;-74
2021/09/24 00:19:40;;;;;;;5.60;3.33;;;;;;;11.84;92.76;99837.09;6254417;28;20045;-73
2021/09/24 00:22:41;;;;;;;8.60;3.50;;;;;;;11.80;93.34;99819.13;6272169;28;20056;-74
2021/09/24 00:25:42;;;;;;;8.82;4.55;;;;;;;11.74;93.67;99816.94;6270787;28;20053;-74
2021/09/24 00:28:43;;;;;;;8.23;3.97;;;;;;;11.66;94.48;99810.44;6254510;28;20045;-74
2021/09/24 00:31:44;;;;;;;10.23;4.30;;;;;;;11.61;95.17;99804.72;6272380;28;20131;-74
2021/09/24 00:34:44;;;;;;;7.60;3.85;;;;;;;11.58;95.51;99799.69;6296164;28;20539;-74
2021/09/24 00:37:45;;;;;;;9.35;3.97;;;;;;;11.57;95.67;99805.88;6295607;28;20040;-74
2021/09/24 00:40:46;;;;;;;5.40;3.63;;;;;;;11.56;95.49;99795.53;6295145;28;20562;-74
2021/09/24 00:43:47;;;;;;;12.35;4.25;;;;;;;11.43;96.34;99801.59;6278625;28;20070;-74
2021/09/24 00:46:48;;;;;;;14.30;5.25;;;;;;;11.35;96.57;99779.56;6311956;28;20110;-74
2021/09/24 00:49:49;;;;;;;12.02;4.28;;;;;;;11.34;97.07;99777.88;6295407;28;20574;-74
2021/09/24 00:52:53;;;;;;;9.23;4.13;;;;;;;11.23;97.98;99779.44;6294353;28;20044;-74
2021/09/24 00:55:55;;;;;;;6.53;4.03;;;;;;;11.18;99.10;99780.69;6295343;28;20709;-74
2021/09/24 00:58:55;;;;;;;8.73;4.22;;;;;;;11.17;99.22;99785.06;6295709;28;20375;-74
2021/09/24 01:01:57;;;;;;;9.85;4.40;;;;;;;11.15;99.31;99778.28;6294978;28;20048;-74
2021/09/24 01:04:58;;;;;;;5.97;4.10;;;;;;;11.07;100.00;99778.81;6278562;28;20472;-74
2021/09/24 01:08:00;;;;;;;6.63;4.30;;;;;;;11.15;99.67;99775.69;6294983;28;20040;-74
2021/09/24 01:11:00;;;;;;;;;;;;;;;11.17;99.51;99772.00;6295384;28;20113;-74
2021/09/24 01:14:02;;;;;;;9.07;4.13;;;;;;;11.19;99.61;99780.59;6296239;28;19920;-74
2021/09/24 01:17:03;;;;;;;10.00;4.37;;;;;;;11.26;98.97;99763.56;6296436;28;20430;-74
2021/09/24 01:20:06;;;;;;;11.25;4.03;;;;;;;11.34;98.11;99762.19;6296014;28;20086;-73
2021/09/24 01:23:08;;;;;;;12.93;4.43;;;;;;;11.34;97.85;99762.19;6296237;28;20056;-73
2021/09/24 01:26:08;;;;;;;12.07;4.22;;;;;;;11.28;98.51;99753.84;6296201;28;20040;-74
2021/09/24 01:29:09;;;;;;;9.88;4.25;;;;;;;11.24;98.52;99746.31;6294932;28;20415;-74
2021/09/24 01:32:10;;;;;;;8.52;4.28;;;;;;;11.21;98.67;99741.31;6261730;28;20040;-74
2021/09/24 01:35:12;;;;;;;10.40;4.80;;;;;;;11.15;99.44;99731.28;6294511;28;20555;-74
2021/09/24 01:38:13;;;;;;;7.90;4.25;;;;;;;11.15;99.29;99726.88;6295955;28;20536;-74
2021/09/24 01:41:14;;;;;;;7.53;4.63;;;;;;;11.15;99.39;99720.84;6294625;28;20078;-74
2021/09/24 01:44:15;;;;;;;10.60;4.70;;;;;;;11.14;98.67;99727.84;6279349;28;20124;-74
2021/09/24 01:47:16;;;;;;;12.13;4.27;;;;;;;11.08;99.36;99741.31;6299492;28;20470;-74
2021/09/24 01:50:17;;;;;;;12.38;4.25;;;;;;;11.11;98.92;99719.38;6300697;28;20045;-73
2021/09/24 01:53:18;;;;;;;6.68;4.40;;;;;;;11.09;99.30;99714.25;6300564;28;20037;-74
2021/09/24 01:56:21;;;;;;;9.73;4.30;;;;;;;11.05;98.90;99704.97;6298817;28;20472;-74
2021/09/24 01:59:22;;;;;;;10.27;4.35;;;;;;;11.03;98.69;99697.22;6298348;28;20056;-74
2021/09/24 02:02:23;;;;;;;8.52;4.70;;;;;;;10.99;99.02;99690.53;6282167;28;20048;-74
2021/09/24 02:05:24;;;;;;;6.60;3.90;;;;;;;10.98;98.70;99685.44;6298891;28;20071;-74
2021/09/24 02:08:25;;;;;;;8.55;4.40;;;;;;;10.97;98.94;99668.09;6282252;28;20091;-74
2021/09/24 02:11:25;;;;;;;7.80;4.20;;;;;;;10.93;98.09;99658.81;6298828;28;20057;-74
2021/09/24 02:14:26;;;;;;;7.70;4.35;;;;;;;10.97;98.03;99671.53;6299941;28;20123;-74
2021/09/24 02:17:27;;;;;;;15.65;4.90;;;;;;;10.95;98.04;99680.44;6298811;28;20086;-73
2021/09/24 02:20:28;;;;;;;8.35;4.65;;;;;;;10.92;98.42;99680.66;6281922;28;20387;-74
2021/09/24 02:23:29;;;;;;;9.57;4.53;;;;;;;10.92;98.32;99668.44;6299861;28;20123;-74
2021/09/24 02:26:30;;;;;;;12.68;4.35;;;;;;;10.96;96.97;99651.63;6281899;28;20040;-74
2021/09/24 02:29:30;;;;;;;7.82;4.43;;;;;;;10.93;97.45;99666.66;6298274;28;20056;-74
2021/09/24 02:32:32;;;;;;;8.25;3.75;;;;;;;11.00;95.74;99668.75;6299509;28;20067;-74
2021/09/24 02:35:33;;;;;;;9.30;4.90;;;;;;;11.01;95.16;99662.56;6299511;28;20041;-74
2021/09/24 02:38:33;;;;;;;5.75;4.20;;;;;;;11.01;93.88;99652.13;6299599;28;20067;-74
2021/09/24 02:41:35;;;;;;;13.25;4.70;;;;;;;11.06;93.37;99644.81;6299473;28;20051;-74
2021/09/24 02:44:35;;;;;;;7.32;4.35;;;;;;;11.06;92.63;99654.44;6281621;28;20047;-74
2021/09/24 02:47:36;;;;;;;11.05;4.78;;;;;;;11.09;91.83;99654.19;6281387;28;20049;-74
2021/09/24 02:50:37;;;;;;;6.18;4.22;;;;;;;11.12;91.24;99645.31;6298024;28;20491;-74
2021/09/24 02:53:38;;;;;;;12.68;4.80;;;;;;;11.09;91.06;99643.75;6298004;28;20033;-73
2021/09/24 02:56:38;;;;;;;27.63;5.05;;;;;;;11.17;90.21;99653.69;6296943;28;20097;-74
2021/09/24 02:59:39;;;;;;;16.17;4.93;;;;;;;11.21;88.80;99649.91;6297772;28;20057;-74
2021/09/24 03:02:40;;;;;;;7.00;4.47;;;;;;;11.19;88.48;99657.84;6298795;28;20049;-74
2021/09/24 03:05:44;;;;;;;20.05;5.30;;;;;;;11.18;88.91;99648.34;6297575;28;20131;-73
2021/09/24 03:08:44;;;;;;;16.67;4.72;;;;;;;11.21;87.45;99657.75;6314511;28;20125;-74
2021/09/24 03:11:45;;;;;;;14.50;5.28;;;;;;;11.22;87.60;99646.34;6280609;28;20534;-73
2021/09/24 03:14:46;;;;;;;9.95;5.15;;;;;;;11.19;87.34;99644.78;6313154;28;20053;-74
2021/09/24 03:17:47;;;;;;;12.80;4.53;;;;;;;11.20;87.38;99654.31;6297480;28;20407;-74
2021/09/24 03:20:48;;;;;;;8.82;5.25;;;;;;;11.21;87.07;99636.84;6296568;28;20127;-74
2021/09/24 03:23:48;;;;;;;7.10;4.68;;;;;;;11.21;87.59;99637.69;6297085;28;20039;-75
2021/09/24 03:26:51;;;;;;;12.60;4.82;;;;;;;11.17;87.18;99632.78;6297079;28;20061;-74
2021/09/24 03:29:52;;;;;;;11.50;4.97;;;;;;;11.08;87.65;99619.44;6297206;28;20047;-74
2021/09/24 03:32:53;;;;;;;11.25;5.05;;;;;;;11.13;87.22;99616.50;6296961;28;20036;-74
2021/09/24 03:35:54;;;;;;;16.50;5.13;;;;;;;11.11;86.90;99607.94;6298008;28;20071;-74
2021/09/24 03:38:55;;;;;;;10.93;4.78;;;;;;;11.09;86.66;99626.31;6280098;28;20047;-74
2021/09/24 03:41:56;;;;;;;7.88;4.60;;;;;;;11.16;85.89;99645.00;6280134;28;20502;-74
2021/09/24 03:44:56;;;;;;;6.57;4.32;;;;;;;11.19;85.94;99646.56;6296817;28;20084;-74
2021/09/24 03:47:57;;;;;;;6.88;4.07;;;;;;;11.26;85.48;99637.34;6296378;28;20090;-74
2021/09/24 03:50:58;;;;;;;7.13;4.35;;;;;;;11.32;84.57;99642.13;6296480;28;20048;-74
2021/09/24 03:53:59;;;;;;;10.05;4.47;;;;;;;11.34;84.59;99626.38;6296592;28;20051;-74
2021/09/24 03:57:00;;;;;;;8.85;4.05;;;;;;;11.29;84.18;99609.25;6297231;28;20052;-74
2021/09/24 04:00:01;;;;;;;8.45;3.83;;;;;;;11.33;84.09;99595.97;6296322;28;20048;-74
2021/09/24 04:03:02;;;;;;;13.38;4.38;;;;;;;11.26;84.01;99591.19;6297408;28;20452;-74
2021/09/24 04:06:03;;;;;;;12.02;4.20;;;;;;;11.23;84.57;99591.41;6297395;28;20044;-74
2021/09/24 04:09:03;;;;;;;8.48;4.50;;;;;;;11.21;84.60;99582.00;6294967;28;20083;-74
2021/09/24 04:12:05;;;;;;;10.23;4.78;;;;;;;11.22;84.22;99609.78;6296000;28;20403;-73
2021/09/24 04:15:06;;;;;;;10.27;4.78;;;;;;;11.18;84.52;99616.16;6295822;28;20040;-74
2021/09/24 04:18:07;;;;;;;7.50;4.38;;;;;;;11.16;84.84;99613.69;6294693;28;20973;-74
2021/09/24 04:21:09;;;;;;;7.72;4.90;;;;;;;11.10;84.27;99624.56;6256184;28;20053;-74
2021/09/24 04:24:10;;;;;;;7.07;4.30;;;;;;;11.14;84.51;99628.63;6278885;28;20475;-74
2021/09/24 04:27:11;;;;;;;8.82;4.72;;;;;;;11.10;85.15;99627.16;6284288;28;20044;-74
2021/09/24 04:30:12;;;;;;;16.52;4.45;;;;;;;11.07;85.42;99609.09;6270981;28;20045;-74
2021/09/24 04:33:13;;;;;;;8.23;5.03;;;;;;;11.05;85.70;99590.09;6284120;28;20040;-75
2021/09/24 04:36:14;;;;;;;8.90;5.10;;;;;;;11.01;85.78;99572.97;6277803;28;20078;-74
2021/09/24 04:39:15;;;;;;;8.90;4.65;;;;;;;11.04;85.18;99565.75;6295952;28;20070;-74
2021/09/24 04:42:15;;;;;;;8.35;4.70;;;;;;;11.07;84.84;99562.09;6294318;28;20179;-74
2021/09/24 04:45:16;;;;;;;8.45;3.75;;;;;;;11.06;85.30;99565.66;6290914;28;20037;-75
2021/09/24 04:48:17;;;;;;;8.25;5.13;;;;;;;11.04;86.03;99571.00;6270762;28;20108;-74
2021/09/24 04:51:18;;;;;;;11.23;4.38;;;;;;;10.97;85.79;99567.13;6270539;28;20055;-74
2021/09/24 04:54:19;;;;;;;7.75;4.63;;;;;;;11.03;85.20;99568.47;6271616;28;20487;-74
2021/09/24 04:57:20;;;;;;;8.50;4.32;;;;;;;11.00;85.70;99579.97;6270203;28;20060;-74
2021/09/24 05:00:21;;;;;;;9.20;4.70;;;;;;;11.01;85.07;99589.47;6275350;28;20040;-74
2021/09/24 05:03:21;;;;;;;8.98;4.50;;;;;;;11.04;85.16;99586.66;6295141;28;20055;-75
2021/09/24 05:06:22;;;;;;;9.20;4.65;;;;;;;11.06;85.40;99576.94;6294020;28;20040;-75
2021/09/24 05:09:23;;;;;;;12.10;4.40;;;;;;;11.07;84.57;99593.44;6276395;28;20075;-74
2021/09/24 05:12:23;;;;;;;7.60;4.50;;;;;;;11.10;85.44;99585.41;6294558;28;20482;-74
2021/09/24 05:15:24;;;;;;;10.02;4.70;;;;;;;11.07;84.80;99585.59;6294932;28;20127;-74
2021/09/24 05:18:25;;;;;;;8.20;4.60;;;;;;;11.11;84.85;99589.66;6277387;28;20135;-74
2021/09/24 05:21:26;;;;;;;13.18;4.55;;;;;;;11.09;85.54;99576.69;6298884;28;20051;-75
2021/09/24 05:24:27;;;;;;;11.25;4.32;;;;;;;11.12;87.16;99586.13;6298728;28;20471;-74
2021/09/24 05:27:28;;;;;;;16.83;4.80;;;;;;;11.05;88.92;99588.31;6299804;28;20047;-74
2021/09/24 05:30:28;;;;;;;11.88;4.97;;;;;;;10.97;90.26;99582.78;6281893;28;20040;-75
2021/09/24 05:33:29;;;;;;;7.18;4.30;;;;;;;11.03;89.34;99592.81;6298583;28;20036;-74
2021/09/24 05:36:31;;;;;;;7.88;5.07;;;;;;;11.06;90.88;99583.94;6292300;28;20041;-74
2021/09/24 05:39:31;;;;;;;10.77;4.85;;;;;;;11.08;89.27;99582.88;6274690;28;20051;-74
2021/09/24 05:42:32;;;;;;;8.10;4.90;;;;;;;11.08;90.09;99597.72;6274626;28;20045;-74
2021/09/24 05:45:33;;;;;;;9.73;5.00;;;;;;;11.07;90.70;99588.19;6274627;28;20400;-75
2021/09/24 05:48:34;;;;;;;12.00;5.38;;;;;;;11.03;90.88;99569.31;6273254;28;20076;-75
2021/09/24 05:51:34;;;;;;;8.80;4.43;;;;;;;11.05;92.03;99577.03;6273266;28;20079;-75
2021/09/24 05:54:35;;;;;;;9.60;7.30;;;;;;;10.99;92.63;99572.25;6274160;28;20045;-74
2021/09/24 05:57:36;;;;;;;7.72;4.55;;;;;;;11.07;90.29;99582.97;6273178;28;20466;-74
2021/09/24 06:00:37;;;;;;;9.02;4.35;;;;;;;11.09;90.85;99570.66;6274198;28;20041;-75
2021/09/24 06:03:38;;;;;;;8.07;4.63;;;;;;;11.10;90.71;99569.72;6274071;28;20052;-75
2021/09/24 06:06:39;;;;;;;9.23;5.40;;;;;;;11.15;90.43;99569.41;6274132;28;20037;-74
2021/09/24 06:09:39;;;;;;;6.03;4.00;;;;;;;11.18;89.17;99558.72;6274011;28;20514;-75
2021/09/24 06:12:40;;;;;;;8.98;4.70;;;;;;;11.24;88.34;99576.56;6273855;28;20633;-74
2021/09/24 06:15:42;;;;;;;11.73;4.18;;;;;;;11.32;87.89;99561.16;6273990;28;20519;-74
2021/09/24 06:18:42;;;;;;;7.32;5.10;;;;;;;11.23;88.93;99552.22;6272552;28;20052;-75
2021/09/24 06:21:45;;;;;;;12.75;4.60;;;;;;;11.36;88.20;99570.47;6256163;28;20049;-74
2021/09/24 06:24:46;;;;;;;12.93;4.45;;;;;;;11.43;86.89;99573.47;6256192;28;20484;-74
2021/09/24 06:27:47;;;;;;;12.15;4.85;;;;;;;11.49;88.02;99579.09;6279027;28;20044;-74
2021/09/24 06:30:48;;;;;;;8.55;4.22;;;;;;;11.58;87.17;99568.91;6293035;28;20406;-74
2021/09/24 06:33:50;;;;;;;8.57;4.13;;;;;;;11.64;86.67;99566.69;6292445;28;20090;-74
2021/09/24 06:36:50;;;;;;;12.52;4.85;;;;;;;11.68;87.15;99567.31;6274158;28;20049;-74
2021/09/24 06:39:51;;;;;;;9.15;4.47;;;;;;;11.72;85.94;99557.47;6273314;28;20136;-75
2021/09/24 06:42:53;;;;;;;10.73;4.32;;;;;;;11.73;86.95;99554.72;6255523;28;20044;-72
2021/09/24 06:45:54;;;;;;;;;;;;;;;11.76;86.64;99561.53;6282065;28;20052;-74
2021/09/24 06:48:55;;;;;;;21.83;6.75;;;;;;;11.79;87.42;99567.34;6298050;28;19920;-74
2021/09/24 06:51:58;;;;;;;10.30;4.13;;;;;;;11.95;86.13;99563.63;6280233;28;20047;-74
2021/09/24 06:54:59;;;;;;;8.13;4.10;;;;;;;12.05;85.95;99560.22;6298202;28;20048;-74
2021/09/24 06:58:00;;;;;;;7.18;4.35;;;;;;;12.17;86.27;99557.59;6297820;28;20376;-75
2021/09/24 07:01:01;;;;;;;6.60;4.13;;;;;;;12.27;85.13;99548.09;6279941;28;20064;-75
2021/09/24 07:04:02;;;;;;;12.02;4.13;;;;;;;12.34;85.50;99548.50;6297556;28;20044;-75
2021/09/24 07:07:03;;;;;;;6.93;4.18;;;;;;;12.36;84.57;99563.13;6296496;28;20040;-74
2021/09/24 07:10:04;;;;;;;11.68;4.68;;;;;;;12.49;84.05;99566.44;6297506;28;20052;-74
2021/09/24 07:13:05;;;;;;;18.27;4.68;;;;;;;12.58;85.08;99574.53;6297518;28;20094;-74
2021/09/24 07:16:06;;;;;;;11.45;4.07;;;;;;;12.72;84.25;99571.69;6297367;28;20049;-74
2021/09/24 07:19:07;;;;;;;12.30;4.40;;;;;;;12.81;83.13;99564.94;6296045;28;20040;-74
2021/09/24 07:22:11;;;;;;;7.68;4.00;;;;;;;12.86;82.88;99570.63;6292037;28;20036;-74
2021/09/24 07:25:12;;;;;;;10.23;4.22;;;;;;;12.88;82.54;99564.31;6294136;28;20391;-75
2021/09/24 07:28:14;;;;;;;14.05;4.15;;;;;;;12.95;83.77;99546.34;6273303;28;20041;-74
2021/09/24 07:31:15;;;;;;;8.30;4.07;;;;;;;13.10;82.72;99552.16;6282651;28;20049;-74
2021/09/24 07:34:19;;;;;;;6.65;3.97;;;;;;;13.16;83.07;99551.69;6286226;28;20316;-74
2021/09/24 07:37:20;;;;;;;5.90;3.70;;;;;;;13.29;82.46;99554.16;6296026;28;20040;-74
2021/09/24 07:40:21;;;;;;;16.45;3.55;;;;;;;13.49;82.51;99544.72;6285328;28;20029;-74
2021/09/24 07:43:22;;;;;;;8.60;3.95;;;;;;;13.60;81.90;99555.13;6291210;28;20502;-74
2021/09/24 07:46:23;;;;;;;5.50;3.95;;;;;;;13.76;81.50;99548.66;6297625;28;20491;-74
2021/09/24 07:49:24;;;;;;;10.15;3.70;;;;;;;13.95;81.54;99555.81;6296085;28;20498;-75
2021/09/24 07:52:24;;;;;;;10.98;3.67;;;;;;;14.12;81.05;99565.72;6295040;28;20047;-75
2021/09/24 07:55:25;;;;;;;15.45;3.78;;;;;;;14.38;81.01;99560.09;6294776;28;20049;-74
2021/09/24 07:58:26;;;;;;;7.32;3.55;;;;;;;14.67;78.98;99555.00;6295927;28;20041;-75
2021/09/24 08:01:27;;;;;;;9.35;3.72;;;;;;;14.89;79.09;99554.81;6294904;28;20036;-75
2021/09/24 08:04:28;;;;;;;8.35;3.53;;;;;;;15.09;76.87;99566.22;6278305;28;20051;-75
2021/09/24 08:07:29;;;;;;;6.80;3.80;;;;;;;15.11;77.19;99559.03;6294677;28;20476;-75
2021/09/24 08:10:30;;;;;;;6.07;3.50;;;;;;;15.21;78.44;99551.16;6294755;28;20138;-75
2021/09/24 08:13:31;;;;;;;13.02;3.50;;;;;;;15.41;78.54;99553.84;6278157;28;20044;-75
2021/09/24 08:16:32;;;;;;;6.70;3.05;;;;;;;15.67;77.40;99554.97;6294542;28;20049;-75
2021/09/24 08:19:33;;;;;;;6.82;3.55;;;;;;;16.00;75.88;99559.94;6307649;28;20052;-75
2021/09/24 08:22:38;;;;;;;6.10;3.10;;;;;;;16.11;75.22;99552.72;6269899;28;20500;-76
2021/09/24 08:25:39;;;;;;;9.98;3.30;;;;;;;16.45;75.33;99551.38;6269784;28;20044;-75
2021/09/24 08:28:40;;;;;;;7.25;3.40;;;;;;;16.75;73.26;99550.31;6291618;28;20449;-75
2021/09/24 08:31:41;;;;;;;4.53;3.28;;;;;;;16.91;72.32;99563.72;6295842;28;20052;-75
2021/09/24 08:34:41;;;;;;;9.52;3.83;;;;;;;17.12;71.33;99554.72;6294308;28;20170;-75
2021/09/24 08:37:45;;;;;;;10.93;4.15;;;;;;;17.31;70.56;99556.41;6294244;28;20040;-75
2021/09/24 08:40:46;;;;;;;6.90;3.17;;;;;;;17.32;70.71;99550.19;6294201;28;20064;-75
2021/09/24 08:43:48;;;;;;;9.50;3.45;;;;;;;17.48;70.96;99552.13;6294192;28;20414;-75
2021/09/24 08:46:49;;;;;;;6.85;3.85;;;;;;;17.53;71.06;99553.34;6294077;28;20055;-75
2021/09/24 08:49:50;;;;;;;14.27;3.97;;;;;;;17.49;67.99;99551.16;6295342;28;20132;-75
2021/09/24 08:52:52;;;;;;;8.98;4.00;;;;;;;17.63;68.96;99540.06;6269899;28;20045;-75
2021/09/24 08:55:53;;;;;;;6.57;3.38;;;;;;;17.65;68.25;99530.22;6285264;28;20118;-75
2021/09/24 08:58:54;;;;;;;6.87;3.30;;;;;;;17.63;67.00;99534.81;6252587;28;20054;-75
2021/09/24 09:02:07;;;;;;;9.73;3.70;;;;;;;17.50;69.86;99532.56;6269138;28;20274;-75
2021/09/24 09:05:11;;;;;;;10.68;3.90;;;;;;;17.56;70.54;99527.63;6270125;28;20055;-75
2021/09/24 09:08:19;;;;;;;14.93;7.43;;;;;;;17.60;70.87;99532.44;6269072;28;20040;-75
2021/09/24 09:11:20;;;;;;;7.53;3.20;;;;;;;17.63;68.49;99529.53;6269119;28;20118;-75
2021/09/24 09:14:23;;;;;;;9.88;3.08;;;;;;;17.75;68.91;99526.63;6236158;28;20049;-75
2021/09/24 09:17:39;;;;;;;10.10;3.85;;;;;;;18.00;68.75;99525.06;6268903;28;20047;-74
2021/09/24 09:20:45;;;;;;;6.93;3.22;;;;;;;18.16;67.46;99519.91;6270044;28;20052;-75
2021/09/24 09:23:51;;;;;;;9.20;3.13;;;;;;;18.47;65.17;99517.59;6270028;28;20041;-75
2021/09/24 09:27:15;;;;;;;8.40;2.60;;;;;;;18.84;63.93;99515.63;6268823;28;20496;-72
2021/09/24 09:30:16;;;;;;;8.43;2.83;;;;;;;19.11;62.14;99514.56;6283380;28;20040;-72
2021/09/24 09:33:19;;;;;;;16.05;2.88;;;;;;;19.16;63.33;99511.41;6293686;28;20041;-72
2021/09/24 09:36:23;;;;;;;8.38;2.67;;;;;;;19.12;62.17;99511.72;6295032;28;20048;-72
2021/09/24 09:39:29;;;;;;;9.68;2.45;;;;;;;19.16;60.84;99522.00;6293376;28;20038;-72
2021/09/24 09:42:38;;;;;;;12.02;2.40;;;;;;;19.17;63.07;99507.78;6294587;28;20066;-72
2021/09/24 09:45:39;;;;;;;7.50;2.75;;;;;;;19.23;61.14;99515.06;6293314;28;20063;-72
2021/09/24 09:48:40;;;;;;;14.30;2.80;;;;;;;19.09;61.09;99517.34;6276783;28;20120;-72
2021/09/24 09:51:44;;;;;;;6.05;2.67;;;;;;;19.19;60.50;99513.72;6294697;28;20037;-75
2021/09/24 09:54:45;;;;;;;5.70;2.63;;;;;;;19.27;61.64;99516.38;6294279;28;20064;-75
2021/09/24 09:57:59;;;;;;;4.23;2.50;;;;;;;19.39;62.35;99520.38;6284330;28;20071;-75
2021/09/24 10:01:05;;;;;;;10.80;2.63;;;;;;;19.35;61.44;99512.94;6270558;28;20049;-75
2021/09/24 10:04:06;;;;;;;5.55;2.33;;;;;;;19.42;61.43;99517.41;6294759;28;20127;-75
2021/09/24 10:07:35;;;;;;;6.50;2.33;;;;;;;19.40;61.21;99516.75;6298542;28;20109;-75
2021/09/24 10:10:52;;;;;;;4.63;2.42;;;;;;;19.42;62.76;99513.94;6299192;28;20037;-75
2021/09/24 10:13:58;;;;;;;6.22;2.72;;;;;;;19.46;60.19;99507.34;6297825;28;20372;-74
2021/09/24 10:16:59;;;;;;;9.07;2.67;;;;;;;19.60;61.14;99511.13;6295696;28;20037;-75
2021/09/24 10:20:00;;;;;;;6.10;2.77;;;;;;;19.59;60.24;99505.03;6287156;28;20037;-76
2021/09/24 10:23:00;;;;;;;6.30;2.67;;;;;;;19.66;59.54;99511.31;6297459;28;20199;-75
2021/09/24 10:26:17;;;;;;;5.50;2.13;;;;;;;19.64;58.57;99509.81;6297710;28;20052;-75
2021/09/24 10:29:41;;;;;;;3.20;1.77;;;;;;;20.00;59.79;99490.97;6297594;28;20044;-75
2021/09/24 10:33:01;;;;;;;15.10;1.90;;;;;;;20.10;51.94;99488.97;6296678;28;20037;-75
2021/09/24 10:36:02;;;;;;;6.75;1.55;;;;;;;20.20;48.11;99499.34;6248764;28;20045;-75
2021/09/24 10:39:05;;;;;;;6.80;1.17;;;;;;;20.28;47.46;99494.03;6272640;28;20076;-75
2021/09/24 10:42:21;;;;;;;20.13;1.80;;;;;;;20.28;48.38;99507.28;6292280;28;20048;-75
2021/09/24 10:45:22;;;;;;;5.30;1.45;;;;;;;20.30;49.08;99506.13;6272099;28;20037;-75
2021/09/24 10:48:25;;;;;;;12.60;1.63;;;;;;;20.43;48.12;99508.25;6279217;28;20305;-75
2021/09/24 10:51:30;;;;;;;3.10;1.52;;;;;;;20.77;47.87;99490.41;6296735;28;20095;-74
2021/09/24 10:54:31;;;;;;;8.30;2.05;;;;;;;20.77;48.29;99487.75;6297919;28;20072;-75
2021/09/24 10:58:00;;;;;;;2.90;1.53;;;;;;;20.79;47.66;99496.38;6296641;28;20406;-75
2021/09/24 11:01:11;;;;;;;3.05;1.65;;;;;;;21.34;48.07;99501.50;6278404;28;20060;-75
2021/09/24 11:04:13;;;;;;;6.00;1.33;;;;;;;21.34;46.28;99495.38;6274037;28;20041;-74
2021/09/24 11:07:31;;;;;;;5.88;1.40;;;;;;;21.18;46.99;99504.25;6283069;28;20479;-74
2021/09/24 11:10:38;;;;;;;1.95;1.30;;;;;;;21.23;47.36;99501.94;6297457;28;20066;-75
2021/09/24 11:13:43;;;;;;;4.93;1.80;;;;;;;21.18;46.86;99508.75;6284852;28;20036;-74
2021/09/24 11:16:44;;;;;;;2.92;1.48;;;;;;;21.10;47.30;99506.97;6270634;28;20381;-74
2021/09/24 11:19:48;;;;;;;2.67;1.45;;;;;;;20.91;47.72;99503.75;6271252;28;20053;-74
2021/09/24 11:22:49;;;;;;;6.18;1.38;;;;;;;21.11;46.45;99520.06;6271218;28;20047;-74
2021/09/24 11:26:09;;;;;;;10.00;1.93;;;;;;;21.51;45.49;99515.50;6271204;28;20037;-75
2021/09/24 11:29:15;;;;;;;5.32;1.10;;;;;;;21.94;44.75;99518.47;6272219;28;20065;-75
2021/09/24 11:32:17;;;;;;;3.63;1.40;;;;;;;21.92;43.78;99520.47;6270906;28;20043;-74
2021/09/24 11:35:39;;;;;;;7.93;1.30;;;;;;;22.12;43.89;99510.16;6272099;28;20105;-75
2021/09/24 11:38:40;;;;;;;2.65;1.15;;;;;;;22.17;43.33;99503.47;6270791;28;20049;-75
2021/09/24 11:41:41;;;;;;;5.70;1.17;;;;;;;22.09;44.02;99507.88;6254278;28;20519;-74
2021/09/24 11:44:48;;;;;;;4.20;1.10;;;;;;;22.48;42.38;99501.50;6270890;28;20037;-75
2021/09/24 11:48:04;;;;;;;4.43;1.45;;;;;;;22.84;43.05;99510.53;6275693;28;20037;-74
2021/09/24 11:51:17;;;;;;;3.55;1.15;;;;;;;22.58;42.18;99503.88;6278212;28;20446;-75
2021/09/24 11:54:20;;;;;;;10.25;1.55;;;;;;;22.84;40.37;99506.03;6270423;28;20039;-75
2021/09/24 11:57:22;;;;;;;7.75;0.98;;;;;;;22.90;39.64;99499.16;6270185;28;20447;-74
2021/09/24 12:00:24;;;;;;;12.38;1.30;;;;;;;22.43;41.05;99503.88;6270110;28;20130;-75
2021/09/24 12:03:30;;;;;;;1.67;1.10;;;;;;;22.26;39.61;99499.78;6253846;28;20241;-74
2021/09/24 12:06:39;;;;;;;7.95;1.30;;;;;;;21.64;40.82;99519.38;6271179;28;20128;-74
2021/09/24 12:09:40;;;;;;;5.65;1.10;;;;;;;22.04;39.51;99496.97;6271247;28;20045;-74
2021/09/24 12:12:40;;;;;;;3.03;1.00;;;;;;;21.78;39.14;99510.66;6269959;28;20048;-74
2021/09/24 12:16:00;;;;;;;2.53;1.77;;;;;;;21.54;40.44;99506.38;6253526;28;20047;-75
2021/09/24 12:19:07;;;;;;;1.65;1.30;;;;;;;21.52;40.21;99513.69;6269867;28;20045;-75
2021/09/24 12:22:09;;;;;;;5.28;1.05;;;;;;;21.63;38.11;99505.28;6270990;28;20426;-74
2021/09/24 12:25:15;;;;;;;10.07;1.48;;;;;;;21.44;38.43;99516.41;6270966;28;20064;-74
2021/09/24 12:28:16;;;;;;;6.75;0.93;;;;;;;21.24;37.25;99511.53;6268938;28;20527;-75
2021/09/24 12:31:38;;;;;;;4.82;1.05;;;;;;;21.26;37.80;99525.44;6269526;28;20048;-74
2021/09/24 12:34:48;;;;;;;3.58;1.30;;;;;;;21.60;37.70;99505.66;6270736;28;20091;-74
2021/09/24 12:37:49;;;;;;;5.03;1.25;;;;;;;21.43;37.62;99510.25;6270563;28;20037;-75
2021/09/24 12:41:05;;;;;;;2.63;1.27;;;;;;;21.22;38.95;99510.88;6270497;28;20044;-75
2021/09/24 12:44:07;;;;;;;3.08;1.60;;;;;;;21.16;38.84;99510.75;6270501;28;20041;-75
2021/09/24 12:47:24;;;;;;;1.52;1.02;;;;;;;21.20;39.32;99515.53;6269047;28;20057;-75
2021/09/24 12:50:25;;;;;;;11.18;1.42;;;;;;;21.20;40.24;99525.31;6269286;28;20051;-76
2021/09/24 12:53:27;;;;;;;2.10;1.10;;;;;;;21.13;37.88;99518.06;6269213;28;20138;-75
2021/09/24 12:56:33;;;;;;;3.15;1.38;;;;;;;21.20;38.69;99517.34;6268809;28;20053;-75
2021/09/24 12:59:35;;;;;;;1.90;1.10;;;;;;;21.35;38.93;99523.53;6285961;28;20045;-75
2021/09/24 13:02:36;;;;;;;;;;;;;;;21.60;38.40;99512.78;6252936;28;20056;-75
2021/09/24 13:05:37;;;;;;;1.40;0.90;;;;;;;21.62;38.90;99508.13;6270228;28;19920;-75
2021/09/24 13:08:38;;;;;;;1.73;0.80;;;;;;;21.40;38.00;99518.56;6269098;28;20068;-75
2021/09/24 13:11:40;;;;;;;;;;;;;;;21.41;38.96;99504.25;6269399;28;20041;-75
2021/09/24 13:14:42;;;;;;;7.60;1.00;;;;;;;21.37;38.79;99512.75;6270219;28;20147;-75
2021/09/24 13:17:43;;;;;;;;;;;;;;;21.51;38.32;99520.00;6269241;28;20503;-75
2021/09/24 13:20:44;;;;;;;6.55;0.95;;;;;;;21.61;38.22;99517.94;6285320;28;19944;-75
2021/09/24 13:23:45;;;;;;;1.80;0.95;;;;;;;21.71;37.53;99515.84;6252163;28;20131;-75
2021/09/24 13:26:46;;;;;;;1.83;0.85;;;;;;;21.71;38.07;99510.53;6268876;28;20091;-75
2021/09/24 13:29:47;;;;;;;3.90;1.10;;;;;;;21.80;40.39;99503.31;6268917;28;20128;-75
2021/09/24 13:32:48;;;;;;;6.47;1.70;;;;;;;22.10;40.35;99514.00;6268696;28;20048;-75
2021/09/24 13:35:49;;;;;;;2.83;1.50;;;;;;;22.19;40.53;99507.59;6268721;28;20041;-74
2021/09/24 13:38:50;;;;;;;3.67;1.50;;;;;;;21.79;43.20;99530.06;6235579;28;20033;-76
2021/09/24 13:41:50;;;;;;;4.67;2.13;;;;;;;21.90;44.33;99513.69;6273773;28;20041;-74
2021/09/24 13:44:51;;;;;;;5.13;1.90;;;;;;;21.59;42.74;99522.59;6273471;28;20121;-74
2021/09/24 13:47:52;;;;;;;3.97;1.80;;;;;;;21.64;45.14;99516.72;6274591;28;20429;-75
2021/09/24 13:50:53;;;;;;;2.97;1.13;;;;;;;21.66;40.75;99499.66;6274444;28;20049;-75
2021/09/24 13:53:54;;;;;;;5.40;2.17;;;;;;;21.58;45.22;99509.47;6274416;28;20430;-75
2021/09/24 13:56:55;;;;;;;4.07;2.42;;;;;;;21.59;46.58;99519.94;6272934;28;20057;-75
2021/09/24 13:59:56;;;;;;;3.53;2.30;;;;;;;21.47;46.49;99519.50;6273034;28;20049;-74
2021/09/24 14:02:57;;;;;;;7.87;2.60;;;;;;;21.33;51.90;99530.84;6274178;28;20448;-74
2021/09/24 14:05:57;;;;;;;7.33;2.43;;;;;;;21.12;52.79;99519.03;6274310;28;20037;-74
2021/09/24 14:08:58;;;;;;;4.77;2.20;;;;;;;21.00;53.52;99538.19;6272822;28;20045;-74
2021/09/24 14:11:59;;;;;;;7.17;3.17;;;;;;;20.92;52.44;99544.38;6272885;28;20045;-74
2021/09/24 14:15:00;;;;;;;4.27;2.30;;;;;;;21.00;54.08;99556.75;6272846;28;20681;-74
2021/09/24 14:18:02;;;;;;;6.73;2.50;;;;;;;20.96;53.14;99572.19;6272631;28;20044;-74